Naples Municipal Airport Naples US
ICAO: KAPF
IATA: APF
Category: Medium
Scheduled Services: No

Elevation: 8 ft
TransAlt. 18000 ft.

Airport Communications:
FORT MYERS APP/DEP:119.75
ATIS:134.225
CLNC DEL:118
CTAF:128.5
GND:121.6
MIAMI RDO:123.6
TWR:128.5

KAPF Zoom In..

Runways:

(A) RW 05 length 6600 ft width 150 ft
---- / hdg 47

(B) RW 14 length 5000 ft width 100 ft
---- / hdg 137

(C) RW 23 length 6600 ft width 150 ft
---- / hdg 227

(D) RW 32 length 5000 ft width 100 ft
---- / hdg 317

Location; KAPF
Day. 25 / Time. 11.53 Zulu
* Altimeter: 29.99
* Temperature: 21° c. 69.8°f.
* Wind from: 090° Speed 03 kn.
Dewpoint: 19° c.
Visibility: 10 Statute Miles.
Clouds: Scattered 3300 ft.
Clouds: Scattered 4000 ft.

KAPF 251153Z 09003KT 10SM SCT033 SCT040 21/19 A2999 RMK AO2 SLP154 70012 T02110189 10233 20194 53011


Wind From 090°
Speed 03 kn.

  YouTube Music Video
 
jpsmedia.com for Web Design  worldairports.se 2018   terms of use